Time;durP1;ratioP1;P1;durP2;ratioP2;P2;SDS_P1;SDS_P2;PMS_P1;PMS_P2;Temp;Humidity;BMP_temperature;BMP_pressure;BME280_temperature;BME280_humidity;BME280_pressure;Samples;Min_cycle;Max_cycle;Signal;HPM_P1;HPM_P2
2022/12/22 03:26:38;;;;;;;1.25;1.00;;;9.30;99.90;;;-144.05;89.54;125687.94;4990757;28;20080;-83
2022/12/22 03:29:31;;;;;;;1.27;0.75;;;9.30;99.90;;;-144.05;89.19;125687.94;4868169;29;20037;-86
2022/12/22 03:31:57;;;;;;;1.23;0.90;;;9.30;99.90;;;-144.05;89.16;125687.94;4877272;29;20037;-82
2022/12/22 03:34:23;;;;;;;1.58;0.70;;;9.30;99.90;;;-144.05;89.54;125687.94;4966298;28;20045;-82
2022/12/22 03:36:51;;;;;;;1.50;1.10;;;9.30;99.90;;;-144.05;89.55;125687.94;5034723;28;20033;-80
2022/12/22 03:39:17;;;;;;;2.60;1.30;;;9.40;99.90;;;-144.05;89.62;125687.94;5034255;28;20033;-81
2022/12/22 03:47:12;;;;;;;1.27;0.90;;;9.40;99.90;;;-144.05;89.67;125687.94;5052429;28;20032;-82
2022/12/22 03:49:37;;;;;;;1.90;0.70;;;9.30;99.90;;;-144.05;90.09;125687.94;5033685;28;20392;-83
2022/12/22 03:52:03;;;;;;;2.47;0.98;;;9.40;99.90;;;-144.05;89.86;125687.94;5051592;28;20071;-81
2022/12/22 03:54:29;;;;;;;1.80;0.90;;;9.50;99.90;;;-144.05;89.96;125687.94;5052270;28;20021;-82
2022/12/22 03:56:55;;;;;;;1.90;0.93;;;9.40;99.90;;;-144.05;90.24;125687.94;5034802;28;20491;-84
2022/12/22 03:59:21;;;;;;;0.68;0.68;;;9.50;99.90;;;-144.05;89.19;125687.94;5052509;28;20037;-85
2022/12/22 04:01:52;;;;;;;2.65;1.10;;;9.50;99.90;;;-144.05;89.92;125687.94;5034903;28;20025;-85
2022/12/22 04:04:24;;;;;;;1.33;0.90;;;9.50;99.90;;;-144.05;89.36;125687.94;5041629;28;20056;-80
2022/12/22 04:06:51;;;;;;;1.33;1.00;;;9.50;99.90;;;-144.05;89.77;125687.94;5036346;28;20315;-82
2022/12/22 04:09:17;;;;;;;2.75;1.02;;;9.50;99.90;;;-144.05;90.02;125687.94;5033603;28;20513;-83
2022/12/22 04:14:28;;;;;;;2.05;0.93;;;9.50;99.90;;;-144.05;89.33;125687.94;5050906;28;20503;-80
2022/12/22 04:16:54;;;;;;;1.10;0.70;;;9.50;99.90;;;-144.05;88.81;125687.94;5033826;28;20029;-82
2022/12/22 04:19:20;;;;;;;2.38;0.88;;;9.60;99.90;;;-144.05;88.61;125687.94;5051353;28;20059;-83
2022/12/22 04:21:46;;;;;;;0.80;0.80;;;9.60;99.90;;;-144.05;88.70;125687.94;5033354;28;20065;-83
2022/12/22 04:24:12;;;;;;;1.10;0.60;;;9.60;99.90;;;-144.05;88.13;125687.94;5033544;28;20086;-83
2022/12/22 04:26:39;;;;;;;0.80;0.75;;;9.60;99.90;;;-144.05;88.73;125687.94;5033516;28;20559;-81
2022/12/22 04:29:05;;;;;;;3.00;0.90;;;9.60;99.90;;;-144.05;88.55;125687.94;5034011;28;20060;-83
2022/12/22 04:31:31;;;;;;;1.88;0.77;;;9.60;99.90;;;-144.05;88.42;125687.94;5037402;28;20469;-82
2022/12/22 04:33:56;;;;;;;2.50;0.70;;;9.80;99.90;;;-144.05;88.08;125687.94;5037512;28;20036;-80
2022/12/22 04:36:22;;;;;;;1.17;0.80;;;9.60;99.90;;;-144.05;88.12;125687.94;5037981;28;20029;-82
2022/12/22 04:38:48;;;;;;;1.33;0.80;;;9.70;99.90;;;-144.05;87.77;125687.94;5037291;28;20120;-83
2022/12/22 04:41:14;;;;;;;0.82;0.68;;;9.60;99.90;;;-144.05;88.17;125687.94;5037344;28;20408;-84
2022/12/22 04:43:40;;;;;;;0.98;0.85;;;9.70;99.90;;;-144.05;88.36;125687.94;5037338;28;20028;-83
2022/12/22 04:46:06;;;;;;;2.65;0.98;;;9.80;99.90;;;-144.05;88.44;125687.94;5037322;28;20029;-82
2022/12/22 04:48:33;;;;;;;1.92;0.60;;;9.70;99.90;;;-144.05;88.10;125687.94;5037155;28;20063;-84
2022/12/22 04:51:00;;;;;;;0.95;0.60;;;9.70;99.90;;;-144.05;88.58;125687.94;5037568;28;20033;-83
2022/12/22 04:53:29;;;;;;;1.80;0.95;;;9.70;99.90;;;-144.05;88.12;125687.94;5038218;28;20032;-85
2022/12/22 04:56:08;;;;;;;3.17;0.90;;;9.70;99.90;;;-144.05;88.43;125687.94;5059841;28;20021;-83
2022/12/22 04:58:35;;;;;;;1.45;0.65;;;9.70;99.90;;;-144.05;88.07;125687.94;5068798;28;20520;-83
2022/12/22 05:01:30;;;;;;;0.70;0.40;;;9.90;99.90;;;-144.05;87.72;125687.94;5051633;28;20029;-82
2022/12/22 05:03:56;;;;;;;1.75;0.60;;;9.80;99.90;;;-144.05;87.76;125687.94;5056931;28;20067;-82
2022/12/22 05:06:22;;;;;;;1.15;0.55;;;9.80;99.90;;;-144.05;88.50;125687.94;5038504;28;20421;-82
2022/12/22 05:08:48;;;;;;;0.90;0.82;;;9.80;99.90;;;-144.05;88.44;125687.94;5036817;28;20032;-81
2022/12/22 05:11:14;;;;;;;2.08;0.50;;;9.90;99.90;;;-144.05;88.47;125687.94;5036734;28;20033;-81
2022/12/22 05:13:39;;;;;;;0.95;0.50;;;10.00;99.90;;;-144.05;87.90;125687.94;5036130;28;20025;-83
2022/12/22 05:16:12;;;;;;;1.10;0.60;;;9.90;99.90;;;-144.05;87.63;125687.94;5056485;28;20070;-85
2022/12/22 05:18:41;;;;;;;1.45;0.63;;;9.90;99.90;;;-144.05;87.09;125687.94;5061690;28;20028;-78
2022/12/22 05:21:19;;;;;;;3.20;1.00;;;9.80;99.90;;;-144.05;87.31;125687.94;5041617;28;20033;-83
2022/12/22 05:23:48;;;;;;;0.88;0.52;;;9.80;99.90;;;-144.05;87.45;125687.94;5056100;28;20364;-81
2022/12/22 05:26:16;;;;;;;2.90;0.70;;;9.80;99.90;;;-144.05;87.05;125687.94;5038288;28;20028;-82
2022/12/22 05:28:45;;;;;;;2.05;0.70;;;9.90;99.90;;;-144.05;87.40;125687.94;5056001;28;20072;-81
2022/12/22 05:31:20;;;;;;;3.03;0.70;;;9.70;99.90;;;-144.05;87.78;125687.94;5038663;28;20392;-81
2022/12/22 05:33:46;;;;;;;1.60;0.80;;;9.80;99.90;;;-144.05;87.98;125687.94;5039224;28;20021;-81
2022/12/22 05:36:12;;;;;;;2.63;0.80;;;9.70;99.90;;;-144.05;87.54;125687.94;5057605;28;20259;-81
2022/12/22 05:38:39;;;;;;;2.72;0.88;;;9.80;99.90;;;-144.05;88.01;125687.94;5039151;28;20447;-83
2022/12/22 05:41:06;;;;;;;1.65;0.70;;;9.70;99.90;;;-144.05;88.78;125687.94;5060390;28;20020;-79
2022/12/22 05:43:35;;;;;;;1.67;1.00;;;9.70;99.90;;;-144.05;88.60;125687.94;5058628;28;20092;-83
2022/12/22 05:46:04;;;;;;;5.75;0.95;;;9.70;99.90;;;-144.05;88.66;125687.94;5039505;28;20029;-80
2022/12/22 05:48:31;;;;;;;2.30;1.15;;;9.80;99.90;;;-144.05;88.68;125687.94;5039727;28;20033;-81
2022/12/22 05:50:57;;;;;;;2.20;1.20;;;9.70;99.90;;;-144.05;88.35;125687.94;5039853;28;20025;-81
2022/12/22 05:53:23;;;;;;;1.98;1.08;;;9.70;99.90;;;-144.05;88.31;125687.94;5038650;28;20029;-83
2022/12/22 05:55:49;;;;;;;2.10;0.90;;;9.70;99.90;;;-144.05;88.53;125687.94;5040130;28;20058;-81
2022/12/22 05:58:15;;;;;;;3.20;0.88;;;9.70;99.90;;;-144.05;88.30;125687.94;5058990;28;20116;-80
2022/12/22 06:00:59;;;;;;;2.20;1.10;;;9.70;99.90;;;-144.05;88.00;125687.94;5039894;28;20037;-82
2022/12/22 06:03:27;;;;;;;2.60;1.02;;;9.70;99.90;;;-144.05;87.90;125687.94;5038527;28;20025;-84
2022/12/22 06:05:54;;;;;;;2.72;1.55;;;9.60;99.90;;;-144.05;88.30;125687.94;5039508;28;20025;-83
2022/12/22 06:08:23;;;;;;;1.98;1.20;;;9.70;99.90;;;-144.05;88.82;125687.94;5038018;28;20116;-82
2022/12/22 06:10:52;;;;;;;2.05;1.20;;;9.70;99.90;;;-144.05;88.64;125687.94;5038907;28;20120;-80
2022/12/22 06:13:18;;;;;;;2.47;0.90;;;9.50;99.90;;;-144.05;88.50;125687.94;5039344;28;20427;-82
2022/12/22 06:15:44;;;;;;;2.30;1.20;;;9.70;99.90;;;-144.05;88.79;125687.94;5039705;28;20025;-82
2022/12/22 06:18:10;;;;;;;2.38;1.08;;;9.70;99.90;;;-144.05;88.38;125687.94;5037873;28;20037;-82
2022/12/22 06:20:36;;;;;;;1.33;0.90;;;9.70;99.90;;;-144.05;89.25;125687.94;5038145;28;20163;-82
2022/12/22 06:24:24;;;;;;;3.95;1.10;;;9.70;99.90;;;-144.05;88.86;125687.94;5038022;28;20374;-83
2022/12/22 06:27:09;;;;;;;3.55;1.10;;;9.70;99.90;;;-144.05;88.60;125687.94;4959689;28;20046;-82
2022/12/22 06:29:36;;;;;;;2.95;0.85;;;9.90;99.90;;;-144.05;88.96;125687.94;4959911;28;20070;-81
2022/12/22 06:32:15;;;;;;;2.15;1.00;;;9.50;99.90;;;-144.05;88.94;125687.94;5016458;28;20037;-82
2022/12/22 06:34:41;;;;;;;2.92;1.20;;;9.70;99.90;;;-144.05;89.31;125687.94;5017798;28;20034;-82
2022/12/22 06:37:28;;;;;;;;;;;;;;;;;;;;;
2022/12/22 06:39:54;;;;;;;1.55;0.90;;;9.60;99.90;;;-144.05;89.04;125687.94;5035685;28;20029;-81
2022/12/22 06:45:05;;;;;;;3.83;1.25;;;9.70;99.90;;;-144.05;89.29;125687.94;5036864;28;20083;-84
2022/12/22 06:47:31;;;;;;;2.08;1.00;;;9.70;99.90;;;-144.05;89.38;125687.94;5018768;28;20032;-82
2022/12/22 06:49:57;;;;;;;0.90;0.80;;;9.70;99.90;;;-144.05;89.06;125687.94;5019927;28;20025;-82
2022/12/22 06:52:23;;;;;;;1.45;0.95;;;9.70;99.90;;;-144.05;89.24;125687.94;5020148;28;20033;-83
2022/12/22 06:54:49;;;;;;;1.75;1.00;;;9.70;99.90;;;-144.05;89.48;125687.94;5019443;28;20029;-84
2022/12/22 06:57:15;;;;;;;3.60;1.60;;;9.90;99.90;;;-144.05;89.11;125687.94;5021597;28;20029;-83
2022/12/22 06:59:41;;;;;;;8.40;3.67;;;9.60;99.90;;;-144.05;89.35;125687.94;5019468;28;20538;-82
2022/12/22 07:02:11;;;;;;;17.05;6.85;;;9.60;99.90;;;-144.05;89.87;125687.94;5020431;28;20469;-83
2022/12/22 07:04:39;;;;;;;7.05;3.30;;;9.60;99.90;;;-144.05;89.74;125687.94;5037707;28;20041;-84
2022/12/22 07:07:05;;;;;;;16.27;5.32;;;9.60;99.90;;;-144.05;89.68;125687.94;5019174;28;20511;-83
2022/12/22 07:09:31;;;;;;;24.13;7.25;;;9.60;99.90;;;-144.05;89.90;125687.94;5037300;28;20061;-79
2022/12/22 07:11:57;;;;;;;9.80;3.40;;;9.60;99.90;;;-144.05;89.66;125687.94;5021538;28;20109;-81
2022/12/22 07:14:23;;;;;;;9.10;3.45;;;9.50;99.90;;;-144.05;89.91;125687.94;5022158;28;20083;-84
2022/12/22 07:16:49;;;;;;;8.38;3.47;;;9.50;99.90;;;-144.05;89.99;125687.94;5024122;28;20089;-80
2022/12/22 07:19:15;;;;;;;8.90;3.63;;;9.60;99.90;;;-144.05;89.76;125687.94;5039706;28;20051;-80
2022/12/22 07:21:46;;;;;;;10.32;3.67;;;9.60;99.90;;;-144.05;89.36;125687.94;5023043;28;20132;-84
2022/12/22 07:24:15;;;;;;;12.10;4.97;;;9.50;99.90;;;-144.05;89.43;125687.94;5019877;28;20029;-82
2022/12/22 07:26:41;;;;;;;13.60;4.53;;;9.60;99.90;;;-144.05;89.00;125687.94;5019766;28;20033;-84
2022/12/22 07:29:10;;;;;;;11.18;4.65;;;9.50;99.90;;;-144.05;88.89;125687.94;5019552;28;20339;-85
2022/12/22 07:31:35;;;;;;;8.40;4.10;;;9.50;99.90;;;-144.05;88.91;125687.94;5019243;28;20120;-83
2022/12/22 07:34:07;;;;;;;11.25;5.20;;;9.50;99.90;;;-144.05;89.26;125687.94;5020303;28;20028;-84
2022/12/22 07:36:41;;;;;;;7.38;4.00;;;9.50;99.90;;;-144.05;89.23;125687.94;5040516;28;20473;-84
2022/12/22 07:39:09;;;;;;;10.85;5.85;;;9.50;99.90;;;-144.05;89.03;125687.94;5021364;28;20037;-84
2022/12/22 07:44:19;;;;;;;9.02;5.38;;;9.50;99.90;;;-144.05;89.10;125687.94;5040451;28;20068;-85
2022/12/22 07:46:45;;;;;;;8.93;5.43;;;9.60;99.90;;;-144.05;88.86;125687.94;5024119;28;20417;-82
2022/12/22 07:52:52;;;;;;;9.25;6.03;;;9.60;99.90;;;-144.05;89.37;125687.94;5004385;28;20041;-83
2022/12/22 07:55:19;;;;;;;13.27;6.20;;;9.60;99.90;;;-144.05;88.81;125687.94;5024277;28;20029;-85
2022/12/22 07:57:45;;;;;;;12.60;7.53;;;9.60;99.90;;;-144.05;89.14;125687.94;5024159;28;20037;-84
2022/12/22 08:00:13;;;;;;;11.88;8.40;;;9.60;99.90;;;-144.05;89.24;125687.94;5023512;28;20025;-86
2022/12/22 08:02:40;;;;;;;14.02;8.10;;;9.60;99.90;;;-144.05;89.22;125687.94;5021708;28;20026;-84
2022/12/22 08:05:08;;;;;;;14.13;7.78;;;9.60;99.90;;;-144.05;89.31;125687.94;5023087;28;20052;-85
2022/12/22 08:07:39;;;;;;;14.07;9.27;;;9.60;99.90;;;-144.05;89.35;125687.94;5022307;28;20021;-84
2022/12/22 08:10:06;;;;;;;17.33;11.85;;;9.70;99.90;;;-144.05;89.58;125687.94;5039210;28;20049;-84
2022/12/22 08:12:32;;;;;;;16.83;10.55;;;9.70;99.90;;;-144.05;89.30;125687.94;5021509;28;20033;-85
2022/12/22 08:14:58;;;;;;;20.42;11.50;;;9.80;99.90;;;-144.05;89.28;125687.94;5039493;28;20025;-83
2022/12/22 08:17:28;;;;;;;22.30;12.85;;;9.80;99.90;;;-144.05;89.56;125687.94;5027044;28;20485;-83
2022/12/22 08:19:55;;;;;;;23.85;13.82;;;9.70;99.90;;;-144.05;89.63;125687.94;5021711;28;20052;-83
2022/12/22 08:22:22;;;;;;;21.33;14.20;;;10.00;99.90;;;-144.05;89.66;125687.94;5021538;28;20033;-85
2022/12/22 08:24:56;;;;;;;20.98;13.50;;;9.80;99.90;;;-144.05;89.61;125687.94;5020607;28;20423;-83
2022/12/22 08:27:53;;;;;;;23.83;14.15;;;10.00;99.90;;;-144.05;89.41;125687.94;5015959;28;20108;-84
2022/12/22 08:30:22;;;;;;;24.23;14.73;;;9.70;99.90;;;-144.05;89.71;125687.94;5015206;28;20045;-83
2022/12/22 08:32:50;;;;;;;26.70;15.55;;;9.80;99.90;;;-144.05;89.76;125687.94;5015946;28;20030;-83
2022/12/22 08:35:17;;;;;;;24.83;15.32;;;9.80;99.90;;;-144.05;89.16;125687.94;5016124;28;20077;-84
2022/12/22 08:37:46;;;;;;;27.67;16.00;;;9.60;99.90;;;-144.05;89.11;125687.94;5034690;28;20037;-82
2022/12/22 08:40:22;;;;;;;30.63;17.25;;;9.80;99.90;;;-144.05;89.14;125687.94;5033389;28;20032;-85
2022/12/22 08:43:26;;;;;;;26.60;16.58;;;9.70;99.90;;;-144.05;89.93;125687.94;5037443;28;20033;-87
2022/12/22 08:47:05;;;;;;;;;;;;;;;;;;;;;
2022/12/22 08:50:38;;;;;;;26.25;14.50;;;9.70;99.90;;;-144.05;89.08;125687.94;4972867;28;20042;-84
2022/12/22 08:53:15;;;;;;;22.67;12.77;;;9.70;99.90;;;-144.05;89.63;125687.94;5010257;28;20034;-85
2022/12/22 08:55:56;;;;;;;23.77;13.85;;;9.70;99.90;;;-144.05;90.12;125687.94;5015516;28;20030;-86
2022/12/22 08:58:25;;;;;;;20.00;12.23;;;9.70;99.90;;;-144.05;90.02;125687.94;5015421;28;20033;-83
2022/12/22 09:01:04;;;;;;;23.88;13.63;;;9.70;99.90;;;-144.05;89.75;125687.94;5031282;28;20048;-86
2022/12/22 09:03:49;;;;;;;22.95;12.77;;;9.90;99.90;;;-144.05;89.49;125687.94;5015350;28;20068;-83
2022/12/22 09:06:29;;;;;;;20.95;12.02;;;9.70;99.90;;;-144.05;89.71;125687.94;5015846;28;20121;-85
2022/12/22 09:09:09;;;;;;;18.75;11.20;;;9.70;99.90;;;-144.05;89.62;125687.94;5015294;28;20045;-85
2022/12/22 09:11:41;;;;;;;23.27;11.52;;;9.70;99.90;;;-144.05;89.99;125687.94;5015687;28;20124;-87
2022/12/22 09:14:15;;;;;;;20.85;11.68;;;9.70;99.90;;;-144.05;89.47;125687.94;5015662;28;20029;-84
2022/12/22 09:16:41;;;;;;;19.08;10.88;;;9.70;99.90;;;-144.05;89.58;125687.94;5043547;28;20025;-81
2022/12/22 09:19:13;;;;;;;18.98;11.73;;;10.30;99.90;;;-144.05;89.49;125687.94;5037027;28;20114;-87
2022/12/22 09:21:42;;;;;;;20.60;10.80;;;9.70;99.90;;;-144.05;89.11;125687.94;5036502;28;20049;-81
2022/12/22 09:24:16;;;;;;;23.75;11.93;;;9.80;99.90;;;-144.05;88.96;125687.94;5036425;28;20113;-87
2022/12/22 09:26:46;;;;;;;20.73;11.35;;;9.70;99.90;;;-144.05;88.74;125687.94;5019194;28;20037;-84
2022/12/22 09:29:15;;;;;;;20.40;10.65;;;9.70;99.90;;;-144.05;88.81;125687.94;5019873;28;20419;-87
2022/12/22 09:31:43;;;;;;;19.10;10.43;;;9.70;99.90;;;-144.05;88.67;125687.94;5019601;28;20021;-83
2022/12/22 09:34:10;;;;;;;19.23;10.02;;;10.00;99.90;;;-144.05;88.75;125687.94;5020004;28;20474;-86
2022/12/22 09:36:41;;;;;;;19.13;10.30;;;9.70;99.90;;;-144.05;88.72;125687.94;5019653;28;20029;-83
2022/12/22 09:39:09;;;;;;;18.00;9.95;;;9.90;99.90;;;-144.05;88.00;125687.94;5020711;28;20128;-86
2022/12/22 09:41:54;;;;;;;18.13;10.25;;;9.80;99.90;;;-144.05;87.97;125687.94;5031100;28;20041;-83
2022/12/22 09:44:37;;;;;;;20.88;10.70;;;9.80;99.90;;;-144.05;87.51;125687.94;5037390;28;20036;-85
2022/12/22 09:47:38;;;;;;;23.35;12.00;;;10.50;99.90;;;-144.05;87.88;125687.94;5028136;28;20026;-85
2022/12/22 09:50:14;;;;;;;27.83;12.90;;;9.90;99.90;;;-144.05;87.42;125687.94;5032872;28;20052;-85
2022/12/22 09:53:02;;;;;;;27.92;12.38;;;9.90;99.90;;;-144.05;87.67;125687.94;5018475;28;20397;-85
2022/12/22 09:55:47;;;;;;;24.65;12.65;;;10.00;99.90;;;-144.05;87.95;125687.94;5018877;28;20477;-84
2022/12/22 09:58:34;;;;;;;35.58;17.58;;;10.00;99.90;;;-144.05;88.13;125687.94;5018408;28;20095;-86
2022/12/22 10:01:58;;;;;;;34.97;16.73;;;10.00;99.90;;;-144.05;87.72;125687.94;5017819;28;20033;-86
2022/12/22 10:05:27;;;;;;;29.65;14.52;;;10.10;99.90;;;-144.05;87.80;125687.94;5018216;28;20029;-85
2022/12/22 10:08:00;;;;;;;27.77;14.45;;;10.10;99.90;;;-144.05;87.46;125687.94;5016980;28;20060;-85
2022/12/22 10:10:35;;;;;;;30.45;14.00;;;10.30;99.90;;;-144.05;87.04;125687.94;5017754;28;20036;-84
2022/12/22 10:13:17;;;;;;;24.88;14.30;;;10.20;99.90;;;-144.05;87.04;125687.94;5016242;28;20029;-86
2022/12/22 10:15:47;;;;;;;22.25;12.98;;;10.30;99.90;;;-144.05;86.44;125687.94;5018168;28;20036;-86
2022/12/22 10:18:22;;;;;;;20.25;12.73;;;10.30;99.90;;;-144.05;85.96;125687.94;5018095;28;20434;-85
2022/12/22 10:21:13;;;;;;;21.35;12.35;;;10.90;99.90;;;-144.05;86.06;125687.94;5017948;28;20033;-87
2022/12/22 10:23:49;;;;;;;21.17;13.23;;;10.20;99.90;;;-144.05;85.94;125687.94;5035818;28;20029;-85
2022/12/22 10:26:29;;;;;;;26.77;14.40;;;10.30;99.90;;;-144.05;85.96;125687.94;5035876;28;20041;-84
2022/12/22 10:29:12;;;;;;;19.88;12.68;;;10.10;99.90;;;-144.05;86.44;125687.94;5017688;28;20076;-84
2022/12/22 10:32:11;;;;;;;22.40;13.10;;;10.10;99.90;;;-144.05;86.74;125687.94;5034349;28;20022;-86
2022/12/22 10:34:36;;;;;;;27.40;14.32;;;10.10;99.90;;;-144.05;86.65;125687.94;5017845;28;20596;-84
2022/12/22 10:37:05;;;;;;;28.20;16.10;;;10.00;99.90;;;-144.05;86.40;125687.94;5018104;28;20018;-86
2022/12/22 10:39:37;;;;;;;24.95;14.70;;;10.30;99.90;;;-144.05;86.54;125687.94;5017657;28;20245;-87
2022/12/22 10:42:14;;;;;;;28.38;15.45;;;10.00;99.90;;;-144.05;86.75;125687.94;5018079;28;20029;-84
2022/12/22 10:44:48;;;;;;;27.13;15.15;;;10.00;99.90;;;-144.05;86.52;125687.94;5017978;28;20030;-85
2022/12/22 10:47:23;;;;;;;23.75;14.68;;;10.40;99.90;;;-144.05;86.48;125687.94;5018048;28;20034;-85
2022/12/22 10:49:58;;;;;;;27.55;15.68;;;10.20;99.90;;;-144.05;86.90;125687.94;5035605;28;20039;-82
2022/12/22 10:52:30;;;;;;;24.23;15.02;;;10.60;99.90;;;-144.05;86.34;125687.94;5018626;28;20029;-85
2022/12/22 10:55:31;;;;;;;26.10;15.00;;;9.80;99.90;;;-144.05;86.41;125687.94;5020129;28;20037;-84
2022/12/22 10:58:09;;;;;;;28.75;17.23;;;9.70;99.90;;;-144.05;85.98;125687.94;5036575;28;20060;-83
2022/12/22 11:00:38;;;;;;;29.73;17.70;;;9.70;99.90;;;-144.05;86.21;125687.94;5018783;28;20053;-85
2022/12/22 11:03:10;;;;;;;33.15;17.52;;;9.70;99.90;;;-144.05;85.97;125687.94;5019512;28;20021;-81
2022/12/22 11:05:37;;;;;;;27.30;15.73;;;10.20;99.90;;;-144.05;85.79;125687.94;5020598;28;20030;-82
2022/12/22 11:08:19;;;;;;;27.50;15.95;;;9.70;99.90;;;-144.05;86.34;125687.94;5020103;28;20034;-85
2022/12/22 11:11:50;;;;;;;23.38;13.23;;;10.90;99.90;;;-144.05;86.13;125687.94;5019963;28;20101;-87
2022/12/22 11:14:44;;;;;;;37.35;20.60;;;9.60;99.90;;;-144.05;85.64;125687.94;4937449;28;20059;-81
2022/12/22 11:17:37;;;;;;;29.20;17.73;;;9.50;99.90;;;-144.05;85.97;125687.94;5036892;28;20036;-83
2022/12/22 11:21:04;;;;;;;28.38;16.02;;;9.50;99.90;;;-144.05;85.98;125687.94;5020174;28;20084;-84
2022/12/22 11:24:20;;;;;;;24.10;14.82;;;9.50;99.90;;;-144.05;85.79;125687.94;5003810;28;20041;-86
2022/12/22 11:27:14;;;;;;;36.90;22.30;;;9.50;99.90;;;-144.05;85.61;125687.94;5019787;28;20036;-84
2022/12/22 11:30:04;;;;;;;48.15;26.35;;;9.50;99.90;;;-144.05;86.10;125687.94;5020243;28;20446;-84
2022/12/22 11:33:19;;;;;;;106.78;48.05;;;9.50;99.90;;;-144.05;86.41;125687.94;5020909;28;20381;-84
2022/12/22 11:35:58;;;;;;;69.72;33.55;;;9.70;99.90;;;-144.05;84.95;125687.94;5021156;28;20033;-85
2022/12/22 11:39:03;;;;;;;79.50;37.15;;;10.00;99.90;;;-144.05;84.15;125687.94;5020187;28;20481;-85
2022/12/22 11:42:03;;;;;;;34.55;19.63;;;10.20;99.90;;;-144.05;83.32;125687.94;5021049;28;20176;-84
2022/12/22 11:44:57;;;;;;;30.45;19.00;;;10.50;99.90;;;-144.05;82.89;125687.94;5035609;28;20036;-83
2022/12/22 11:48:07;;;;;;;25.77;16.88;;;10.70;99.90;;;-144.05;80.29;125687.94;5023979;28;20389;-85
2022/12/22 11:50:47;;;;;;;25.45;14.85;;;11.00;99.90;;;-144.05;79.04;125687.94;5020118;28;20033;-84
2022/12/22 11:54:15;;;;;;;20.60;13.68;;;11.10;99.90;;;-144.05;77.00;125687.94;5037588;28;20101;-86
2022/12/22 11:57:12;;;;;;;;;;;;;;;;;;;;;
2022/12/22 12:00:10;;;;;;;20.25;12.30;;;11.10;99.90;;;-144.05;74.94;125687.94;5036645;28;20120;-84
2022/12/22 12:03:28;;;;;;;20.30;12.05;;;11.00;99.90;;;-144.05;74.63;125687.94;5020008;28;20037;-85
2022/12/22 12:06:33;;;;;;;21.83;13.43;;;11.10;99.90;;;-144.05;72.85;125687.94;5023037;28;20032;-84
2022/12/22 12:09:51;;;;;;;26.13;14.40;;;11.10;99.90;;;-144.05;73.97;125687.94;5018578;28;20033;-84
2022/12/22 12:13:02;;;;;;;23.48;15.40;;;10.60;99.90;;;-144.05;74.26;125687.94;5018780;28;20453;-83
2022/12/22 12:15:46;;;;;;;27.27;16.73;;;10.20;99.90;;;-144.05;75.79;125687.94;5019484;28;20029;-83
2022/12/22 12:19:10;;;;;;;28.98;17.38;;;9.90;99.90;;;-144.05;75.98;125687.94;5018505;28;20044;-84
2022/12/22 12:22:07;;;;;;;27.50;17.60;;;9.70;99.90;;;-144.05;76.76;125687.94;5021017;28;20108;-83
2022/12/22 12:25:31;;;;;;;29.15;17.55;;;9.50;99.90;;;-144.05;77.81;125687.94;5023018;28;20033;-83
2022/12/22 12:29:17;;;;;;;28.40;17.55;;;9.50;99.90;;;-144.05;77.59;125687.94;5005089;28;20044;-84
2022/12/22 12:32:28;;;;;;;30.42;18.70;;;9.80;99.90;;;-144.05;76.83;125687.94;5021543;28;20045;-85
2022/12/22 12:35:22;;;;;;;25.85;16.23;;;9.90;99.90;;;-144.05;77.11;125687.94;5020917;28;20423;-84
2022/12/22 12:38:02;;;;;;;28.38;16.95;;;9.90;99.90;;;-144.05;77.05;125687.94;5021097;28;20038;-83
2022/12/22 12:41:12;;;;;;;27.58;16.95;;;9.70;99.90;;;-144.05;77.06;125687.94;5019736;28;20037;-84
2022/12/22 12:43:47;;;;;;;27.50;16.55;;;10.00;99.90;;;-144.05;75.90;125687.94;5020830;28;20120;-84
2022/12/22 12:46:50;;;;;;;27.15;16.98;;;10.00;99.90;;;-144.05;75.65;125687.94;5019875;28;20083;-83
2022/12/22 12:49:39;;;;;;;26.60;15.38;;;10.10;99.90;;;-144.05;73.67;125687.94;5021129;28;20056;-84
2022/12/22 12:52:13;;;;;;;23.45;13.93;;;10.10;99.90;;;-144.05;72.73;125687.94;5024022;28;20111;-87
2022/12/22 12:55:44;;;;;;;21.13;13.27;;;10.00;99.90;;;-144.05;73.91;125687.94;5023775;28;20039;-81
2022/12/22 12:58:34;;;;;;;23.75;13.50;;;9.90;99.90;;;-144.05;72.29;125687.94;5022481;28;20036;-86
2022/12/22 13:01:04;;;;;;;23.63;12.65;;;10.30;99.90;;;-144.05;72.04;125687.94;5023124;28;20030;-85
2022/12/22 13:05:15;;;;;;;20.20;12.15;;;10.10;99.90;;;-144.05;71.32;125687.94;5021959;28;20045;-85
2022/12/22 13:08:58;;;;;;;22.13;11.52;;;10.30;99.90;;;-144.05;70.78;125687.94;4949645;28;20064;-84
2022/12/22 13:12:27;;;;;;;19.15;10.18;;;10.10;99.90;;;-144.05;70.53;125687.94;4962546;28;20041;-85
2022/12/22 13:15:35;;;;;;;19.45;10.13;;;10.40;99.90;;;-144.05;69.94;125687.94;5039022;28;20124;-84
2022/12/22 13:19:34;;;;;;;16.02;9.23;;;10.50;99.90;;;-144.05;70.05;125687.94;5040872;28;20033;-83
2022/12/22 13:22:47;;;;;;;17.85;10.45;;;10.40;99.90;;;-144.05;69.97;125687.94;4950528;28;20041;-86
2022/12/22 13:29:51;;;;;;;15.05;8.70;;;10.50;99.90;;;-144.05;70.26;125687.94;4979163;28;20043;-89
2022/12/22 13:33:00;;;;;;;22.30;10.02;;;10.50;99.90;;;-144.05;70.12;125687.94;4998311;28;20073;-85
2022/12/22 13:35:41;;;;;;;19.92;10.52;;;10.40;99.90;;;-144.05;70.44;125687.94;5020296;28;20059;-83
2022/12/22 13:39:13;;;;;;;17.27;9.60;;;10.40;99.90;;;-144.05;70.64;125687.94;5023427;28;20026;-85
2022/12/22 13:42:29;;;;;;;21.15;11.23;;;10.30;99.90;;;-144.05;71.51;125687.94;5023158;28;20388;-83
2022/12/22 13:50:16;;;;;;;24.13;12.00;;;10.00;99.90;;;-144.05;72.95;125687.94;4953658;28;20126;-84
2022/12/22 13:58:44;;;;;;;19.05;10.73;;;9.80;99.90;;;-144.05;73.69;125687.94;4885874;29;20057;-87
2022/12/22 14:02:19;;;;;;;16.05;9.60;;;9.70;99.90;;;-144.05;73.23;125687.94;4827633;29;20082;-85
2022/12/22 14:05:20;;;;;;;21.67;10.13;;;9.60;99.90;;;-144.05;72.91;125687.94;4900738;29;20067;-84
2022/12/22 14:09:07;;;;;;;19.75;9.32;;;9.60;99.90;;;-144.05;73.23;125687.94;5020272;28;20041;-84
2022/12/22 14:11:33;;;;;;;18.70;9.57;;;9.60;99.90;;;-144.05;73.83;125687.94;5022487;28;20026;-86
2022/12/22 14:13:59;;;;;;;28.52;11.02;;;9.60;99.90;;;-144.05;73.63;125687.94;5023305;28;20029;-84
2022/12/22 14:16:25;;;;;;;21.10;10.77;;;9.80;99.90;;;-144.05;73.06;125687.94;5022795;28;20109;-84
2022/12/22 14:27:58;;;;;;;;;;;;;;;;;;;;;
2022/12/22 14:31:38;;;;;;;18.15;10.40;;;10.00;99.90;;;-144.05;72.11;125687.94;5038630;28;20109;-85
2022/12/22 14:34:51;;;;;;;16.73;9.75;;;10.10;99.90;;;-144.05;71.69;125687.94;5037312;28;20029;-84
2022/12/22 14:45:18;;;;;;;18.73;10.95;;;10.10;99.90;;;-144.05;72.30;125687.94;4977277;22;20091;-74
2022/12/22 14:47:44;;;;;;;17.02;10.50;;;9.70;99.90;;;-144.05;72.73;125687.94;5034100;28;20029;-74
2022/12/22 14:50:22;;;;;;;18.35;11.02;;;9.40;99.90;;;-144.05;73.74;125687.94;5033522;28;20111;-76
2022/12/22 14:53:00;;;;;;;16.60;10.13;;;9.20;99.90;;;-144.05;74.79;125687.94;5033811;28;20053;-75
2022/12/22 14:55:37;;;;;;;21.00;10.13;;;9.10;99.90;;;-144.05;74.64;125687.94;5033319;28;20117;-75
2022/12/22 14:58:31;;;;;;;20.45;11.10;;;9.00;99.90;;;-144.05;75.08;125687.94;5015938;28;20076;-76
2022/12/22 15:01:18;;;;;;;18.38;9.70;;;8.90;99.90;;;-144.05;75.06;125687.94;5158268;23;20045;-79
2022/12/22 15:04:05;;;;;;;18.60;10.70;;;8.90;99.90;;;-144.05;75.16;125687.94;5018661;28;20026;-78
2022/12/22 15:06:41;;;;;;;27.92;10.52;;;8.90;99.90;;;-144.05;75.04;125687.94;5036527;28;20026;-77
2022/12/22 15:09:12;;;;;;;19.33;9.70;;;8.90;99.90;;;-144.05;74.99;125687.94;5019428;28;20119;-79
2022/12/22 15:12:07;;;;;;;19.55;10.43;;;9.00;99.90;;;-144.05;74.29;125687.94;5017602;28;20480;-77
2022/12/22 15:14:36;;;;;;;18.92;9.25;;;9.00;99.90;;;-144.05;74.48;125687.94;5034199;28;20037;-78